sensor_id;sensor_type;location;lat;lon;timestamp;P1;durP1;ratioP1;P2;durP2;ratioP2
30010;SDS011;16851;53.564;8.112;2023-06-22T00:04:18;7.95;;;6.47;;
30010;SDS011;16851;53.564;8.112;2023-06-22T00:09:20;9.27;;;7.40;;
30010;SDS011;16851;53.564;8.112;2023-06-22T00:14:22;7.47;;;6.68;;
30010;SDS011;16851;53.564;8.112;2023-06-22T00:19:26;8.07;;;6.70;;
30010;SDS011;16851;53.564;8.112;2023-06-22T00:24:27;7.63;;;6.28;;
30010;SDS011;16851;53.564;8.112;2023-06-22T00:29:29;8.27;;;7.20;;
30010;SDS011;16851;53.564;8.112;2023-06-22T00:34:31;7.95;;;7.15;;
30010;SDS011;16851;53.564;8.112;2023-06-22T00:39:36;8.82;;;7.82;;
30010;SDS011;16851;53.564;8.112;2023-06-22T00:44:38;9.02;;;7.35;;
30010;SDS011;16851;53.564;8.112;2023-06-22T00:49:42;10.93;;;8.40;;
30010;SDS011;16851;53.564;8.112;2023-06-22T00:54:44;11.35;;;8.82;;
30010;SDS011;16851;53.564;8.112;2023-06-22T00:59:49;9.80;;;8.75;;
30010;SDS011;16851;53.564;8.112;2023-06-22T01:04:50;12.63;;;10.30;;
30010;SDS011;16851;53.564;8.112;2023-06-22T01:09:59;10.27;;;9.23;;
30010;SDS011;16851;53.564;8.112;2023-06-22T01:15:16;12.50;;;10.13;;
30010;SDS011;16851;53.564;8.112;2023-06-22T01:20:25;11.23;;;10.05;;
30010;SDS011;16851;53.564;8.112;2023-06-22T01:25:36;11.73;;;9.68;;
30010;SDS011;16851;53.564;8.112;2023-06-22T01:30:47;11.02;;;9.93;;
30010;SDS011;16851;53.564;8.112;2023-06-22T01:36:05;10.90;;;9.77;;
30010;SDS011;16851;53.564;8.112;2023-06-22T01:41:10;16.13;;;13.57;;
30010;SDS011;16851;53.564;8.112;2023-06-22T01:46:19;20.75;;;16.13;;
30010;SDS011;16851;53.564;8.112;2023-06-22T01:51:22;14.77;;;12.80;;
30010;SDS011;16851;53.564;8.112;2023-06-22T01:56:24;16.13;;;12.88;;
30010;SDS011;16851;53.564;8.112;2023-06-22T02:01:35;17.38;;;13.20;;
30010;SDS011;16851;53.564;8.112;2023-06-22T02:06:42;18.45;;;16.35;;
30010;SDS011;16851;53.564;8.112;2023-06-22T02:11:50;21.50;;;17.65;;
30010;SDS011;16851;53.564;8.112;2023-06-22T02:16:55;23.45;;;19.35;;
30010;SDS011;16851;53.564;8.112;2023-06-22T02:22:03;21.42;;;17.95;;
30010;SDS011;16851;53.564;8.112;2023-06-22T02:27:05;23.38;;;19.67;;
30010;SDS011;16851;53.564;8.112;2023-06-22T02:32:12;21.45;;;18.25;;
30010;SDS011;16851;53.564;8.112;2023-06-22T02:37:14;23.80;;;19.52;;
30010;SDS011;16851;53.564;8.112;2023-06-22T02:42:22;24.63;;;20.20;;
30010;SDS011;16851;53.564;8.112;2023-06-22T02:47:27;33.25;;;28.45;;
30010;SDS011;16851;53.564;8.112;2023-06-22T02:52:29;32.75;;;26.13;;
30010;SDS011;16851;53.564;8.112;2023-06-22T02:57:34;31.52;;;26.25;;
30010;SDS011;16851;53.564;8.112;2023-06-22T03:02:36;30.50;;;26.00;;
30010;SDS011;16851;53.564;8.112;2023-06-22T03:07:40;38.63;;;31.50;;
30010;SDS011;16851;53.564;8.112;2023-06-22T03:12:43;37.22;;;33.17;;
30010;SDS011;16851;53.564;8.112;2023-06-22T03:17:48;38.90;;;34.80;;
30010;SDS011;16851;53.564;8.112;2023-06-22T03:22:52;37.60;;;30.10;;
30010;SDS011;16851;53.564;8.112;2023-06-22T03:27:54;42.00;;;33.15;;
30010;SDS011;16851;53.564;8.112;2023-06-22T03:32:59;44.85;;;35.95;;
30010;SDS011;16851;53.564;8.112;2023-06-22T03:38:01;37.58;;;31.33;;
30010;SDS011;16851;53.564;8.112;2023-06-22T03:43:05;39.55;;;31.50;;
30010;SDS011;16851;53.564;8.112;2023-06-22T03:48:12;38.63;;;31.58;;
30010;SDS011;16851;53.564;8.112;2023-06-22T03:53:16;38.47;;;32.97;;
30010;SDS011;16851;53.564;8.112;2023-06-22T03:58:18;37.25;;;30.90;;
30010;SDS011;16851;53.564;8.112;2023-06-22T04:03:23;42.30;;;34.45;;
30010;SDS011;16851;53.564;8.112;2023-06-22T04:08:25;41.13;;;32.97;;
30010;SDS011;16851;53.564;8.112;2023-06-22T04:13:29;32.33;;;28.80;;
30010;SDS011;16851;53.564;8.112;2023-06-22T04:18:31;34.88;;;29.73;;
30010;SDS011;16851;53.564;8.112;2023-06-22T04:23:33;36.60;;;30.67;;
30010;SDS011;16851;53.564;8.112;2023-06-22T04:28:34;41.60;;;34.28;;
30010;SDS011;16851;53.564;8.112;2023-06-22T04:33:39;43.00;;;34.67;;
30010;SDS011;16851;53.564;8.112;2023-06-22T04:38:44;42.88;;;34.22;;
30010;SDS011;16851;53.564;8.112;2023-06-22T04:43:46;46.38;;;36.22;;
30010;SDS011;16851;53.564;8.112;2023-06-22T04:48:55;49.75;;;39.42;;
30010;SDS011;16851;53.564;8.112;2023-06-22T04:54:00;42.55;;;34.38;;
30010;SDS011;16851;53.564;8.112;2023-06-22T04:59:02;49.40;;;37.63;;
30010;SDS011;16851;53.564;8.112;2023-06-22T05:04:09;44.00;;;34.08;;
30010;SDS011;16851;53.564;8.112;2023-06-22T05:09:13;49.22;;;36.83;;
30010;SDS011;16851;53.564;8.112;2023-06-22T05:14:18;43.35;;;34.47;;
30010;SDS011;16851;53.564;8.112;2023-06-22T05:19:22;39.75;;;31.35;;
30010;SDS011;16851;53.564;8.112;2023-06-22T05:24:24;38.58;;;29.45;;
30010;SDS011;16851;53.564;8.112;2023-06-22T05:29:26;39.05;;;31.20;;
30010;SDS011;16851;53.564;8.112;2023-06-22T05:34:33;31.52;;;25.83;;
30010;SDS011;16851;53.564;8.112;2023-06-22T05:39:39;35.45;;;28.48;;
30010;SDS011;16851;53.564;8.112;2023-06-22T05:44:41;33.85;;;26.60;;
30010;SDS011;16851;53.564;8.112;2023-06-22T05:49:43;30.05;;;23.27;;
30010;SDS011;16851;53.564;8.112;2023-06-22T05:54:47;24.95;;;20.52;;
30010;SDS011;16851;53.564;8.112;2023-06-22T05:59:51;23.55;;;17.15;;
30010;SDS011;16851;53.564;8.112;2023-06-22T06:04:55;22.08;;;17.10;;
30010;SDS011;16851;53.564;8.112;2023-06-22T06:10:01;19.90;;;15.68;;
30010;SDS011;16851;53.564;8.112;2023-06-22T06:15:05;21.95;;;15.75;;
30010;SDS011;16851;53.564;8.112;2023-06-22T06:20:11;19.20;;;15.48;;
30010;SDS011;16851;53.564;8.112;2023-06-22T06:25:13;22.88;;;14.30;;
30010;SDS011;16851;53.564;8.112;2023-06-22T06:30:20;16.70;;;14.90;;
30010;SDS011;16851;53.564;8.112;2023-06-22T06:35:22;20.00;;;15.80;;
30010;SDS011;16851;53.564;8.112;2023-06-22T06:40:24;18.85;;;14.48;;
30010;SDS011;16851;53.564;8.112;2023-06-22T06:45:33;18.02;;;12.73;;
30010;SDS011;16851;53.564;8.112;2023-06-22T06:50:37;16.92;;;12.43;;
30010;SDS011;16851;53.564;8.112;2023-06-22T06:55:41;15.02;;;9.80;;
30010;SDS011;16851;53.564;8.112;2023-06-22T07:00:43;16.65;;;12.73;;
30010;SDS011;16851;53.564;8.112;2023-06-22T07:05:45;24.20;;;17.45;;
30010;SDS011;16851;53.564;8.112;2023-06-22T07:10:47;22.38;;;16.58;;
30010;SDS011;16851;53.564;8.112;2023-06-22T07:15:49;18.98;;;15.68;;
30010;SDS011;16851;53.564;8.112;2023-06-22T07:20:53;19.95;;;13.05;;
30010;SDS011;16851;53.564;8.112;2023-06-22T07:25:55;10.98;;;8.25;;
30010;SDS011;16851;53.564;8.112;2023-06-22T07:31:03;10.55;;;6.90;;
30010;SDS011;16851;53.564;8.112;2023-06-22T07:36:12;8.25;;;5.97;;
30010;SDS011;16851;53.564;8.112;2023-06-22T07:41:19;8.43;;;4.35;;
30010;SDS011;16851;53.564;8.112;2023-06-22T07:46:21;6.97;;;4.40;;
30010;SDS011;16851;53.564;8.112;2023-06-22T07:51:23;8.40;;;5.82;;
30010;SDS011;16851;53.564;8.112;2023-06-22T07:56:25;10.25;;;6.18;;
30010;SDS011;16851;53.564;8.112;2023-06-22T08:01:27;9.60;;;5.78;;
30010;SDS011;16851;53.564;8.112;2023-06-22T08:06:32;8.27;;;5.65;;
30010;SDS011;16851;53.564;8.112;2023-06-22T08:11:34;9.45;;;5.78;;
30010;SDS011;16851;53.564;8.112;2023-06-22T08:16:36;9.57;;;5.70;;
30010;SDS011;16851;53.564;8.112;2023-06-22T08:21:38;7.63;;;5.78;;
30010;SDS011;16851;53.564;8.112;2023-06-22T08:26:40;7.47;;;5.70;;
30010;SDS011;16851;53.564;8.112;2023-06-22T08:31:42;7.90;;;5.40;;
30010;SDS011;16851;53.564;8.112;2023-06-22T08:36:46;8.55;;;5.95;;
30010;SDS011;16851;53.564;8.112;2023-06-22T08:41:53;11.98;;;6.00;;
30010;SDS011;16851;53.564;8.112;2023-06-22T08:46:57;9.40;;;5.43;;
30010;SDS011;16851;53.564;8.112;2023-06-22T08:51:59;13.65;;;7.30;;
30010;SDS011;16851;53.564;8.112;2023-06-22T08:57:03;9.30;;;5.82;;
30010;SDS011;16851;53.564;8.112;2023-06-22T09:02:05;8.80;;;6.78;;
30010;SDS011;16851;53.564;8.112;2023-06-22T09:07:07;8.63;;;6.05;;
30010;SDS011;16851;53.564;8.112;2023-06-22T09:12:09;10.25;;;6.78;;
30010;SDS011;16851;53.564;8.112;2023-06-22T09:17:14;8.30;;;5.57;;
30010;SDS011;16851;53.564;8.112;2023-06-22T09:22:16;10.60;;;6.25;;
30010;SDS011;16851;53.564;8.112;2023-06-22T09:27:18;9.15;;;5.53;;
30010;SDS011;16851;53.564;8.112;2023-06-22T09:32:20;8.02;;;5.57;;
30010;SDS011;16851;53.564;8.112;2023-06-22T09:37:22;8.75;;;5.82;;
30010;SDS011;16851;53.564;8.112;2023-06-22T09:42:23;8.18;;;5.57;;
30010;SDS011;16851;53.564;8.112;2023-06-22T09:47:25;9.52;;;6.38;;
30010;SDS011;16851;53.564;8.112;2023-06-22T09:52:30;9.10;;;6.35;;
30010;SDS011;16851;53.564;8.112;2023-06-22T09:57:50;9.50;;;5.75;;
30010;SDS011;16851;53.564;8.112;2023-06-22T10:02:52;8.40;;;4.97;;
30010;SDS011;16851;53.564;8.112;2023-06-22T10:07:56;9.52;;;5.85;;
30010;SDS011;16851;53.564;8.112;2023-06-22T10:13:02;8.20;;;4.90;;
30010;SDS011;16851;53.564;8.112;2023-06-22T10:18:15;8.65;;;5.07;;
30010;SDS011;16851;53.564;8.112;2023-06-22T10:23:18;8.10;;;5.40;;
30010;SDS011;16851;53.564;8.112;2023-06-22T10:28:20;8.50;;;5.40;;
30010;SDS011;16851;53.564;8.112;2023-06-22T10:33:22;10.18;;;6.32;;
30010;SDS011;16851;53.564;8.112;2023-06-22T10:38:24;8.32;;;6.05;;
30010;SDS011;16851;53.564;8.112;2023-06-22T10:43:28;9.25;;;6.50;;
30010;SDS011;16851;53.564;8.112;2023-06-22T10:48:32;13.23;;;5.32;;
30010;SDS011;16851;53.564;8.112;2023-06-22T10:53:34;7.57;;;4.50;;
30010;SDS011;16851;53.564;8.112;2023-06-22T10:58:36;6.65;;;4.60;;
30010;SDS011;16851;53.564;8.112;2023-06-22T11:03:42;8.00;;;5.10;;
30010;SDS011;16851;53.564;8.112;2023-06-22T11:08:46;6.57;;;3.95;;
30010;SDS011;16851;53.564;8.112;2023-06-22T11:14:07;7.18;;;4.00;;
30010;SDS011;16851;53.564;8.112;2023-06-22T11:19:08;9.73;;;4.50;;
30010;SDS011;16851;53.564;8.112;2023-06-22T11:24:10;6.07;;;3.70;;
30010;SDS011;16851;53.564;8.112;2023-06-22T11:29:14;6.78;;;3.80;;
30010;SDS011;16851;53.564;8.112;2023-06-22T11:34:32;7.13;;;4.57;;
30010;SDS011;16851;53.564;8.112;2023-06-22T11:39:34;1073.13;;;171.00;;
30010;SDS011;16851;53.564;8.112;2023-06-22T11:44:48;506.45;;;89.13;;
30010;SDS011;16851;53.564;8.112;2023-06-22T11:49:52;90.47;;;40.13;;
30010;SDS011;16851;53.564;8.112;2023-06-22T11:54:53;6.80;;;4.20;;
30010;SDS011;16851;53.564;8.112;2023-06-22T11:59:55;9.05;;;3.33;;
30010;SDS011;16851;53.564;8.112;2023-06-22T12:04:57;11.88;;;7.53;;
30010;SDS011;16851;53.564;8.112;2023-06-22T12:10:02;10.63;;;4.50;;
30010;SDS011;16851;53.564;8.112;2023-06-22T12:15:07;8.15;;;4.07;;
30010;SDS011;16851;53.564;8.112;2023-06-22T12:20:12;5.90;;;3.70;;
30010;SDS011;16851;53.564;8.112;2023-06-22T12:25:16;11.93;;;4.53;;
30010;SDS011;16851;53.564;8.112;2023-06-22T12:30:18;7.97;;;3.97;;
30010;SDS011;16851;53.564;8.112;2023-06-22T12:35:25;6.10;;;4.25;;
30010;SDS011;16851;53.564;8.112;2023-06-22T12:40:29;7.25;;;5.57;;
30010;SDS011;16851;53.564;8.112;2023-06-22T12:45:31;7.13;;;4.38;;
30010;SDS011;16851;53.564;8.112;2023-06-22T12:50:35;6.70;;;3.80;;
30010;SDS011;16851;53.564;8.112;2023-06-22T12:55:39;8.52;;;3.45;;
30010;SDS011;16851;53.564;8.112;2023-06-22T13:00:43;11.70;;;3.75;;
30010;SDS011;16851;53.564;8.112;2023-06-22T13:05:47;17.73;;;3.80;;
30010;SDS011;16851;53.564;8.112;2023-06-22T13:10:49;11.43;;;3.45;;
30010;SDS011;16851;53.564;8.112;2023-06-22T13:15:51;6.20;;;3.10;;
30010;SDS011;16851;53.564;8.112;2023-06-22T13:20:55;4.45;;;2.78;;
30010;SDS011;16851;53.564;8.112;2023-06-22T13:26:02;9.27;;;3.85;;
30010;SDS011;16851;53.564;8.112;2023-06-22T13:31:04;8.68;;;3.30;;
30010;SDS011;16851;53.564;8.112;2023-06-22T13:36:08;7.72;;;2.90;;
30010;SDS011;16851;53.564;8.112;2023-06-22T13:41:10;6.68;;;2.53;;
30010;SDS011;16851;53.564;8.112;2023-06-22T13:46:14;4.57;;;2.42;;
30010;SDS011;16851;53.564;8.112;2023-06-22T13:51:18;6.30;;;2.67;;
30010;SDS011;16851;53.564;8.112;2023-06-22T13:56:22;7.47;;;2.75;;
30010;SDS011;16851;53.564;8.112;2023-06-22T14:01:26;7.32;;;2.70;;
30010;SDS011;16851;53.564;8.112;2023-06-22T14:06:28;4.03;;;1.80;;
30010;SDS011;16851;53.564;8.112;2023-06-22T14:11:30;6.53;;;2.00;;
30010;SDS011;16851;53.564;8.112;2023-06-22T14:16:31;7.18;;;1.65;;
30010;SDS011;16851;53.564;8.112;2023-06-22T14:21:33;4.28;;;1.70;;
30010;SDS011;16851;53.564;8.112;2023-06-22T14:26:37;5.40;;;1.75;;
30010;SDS011;16851;53.564;8.112;2023-06-22T14:31:39;7.13;;;1.85;;
30010;SDS011;16851;53.564;8.112;2023-06-22T14:36:43;5.57;;;1.92;;
30010;SDS011;16851;53.564;8.112;2023-06-22T14:41:45;3.30;;;1.70;;
30010;SDS011;16851;53.564;8.112;2023-06-22T14:46:47;4.07;;;1.67;;
30010;SDS011;16851;53.564;8.112;2023-06-22T14:51:48;4.07;;;1.75;;
30010;SDS011;16851;53.564;8.112;2023-06-22T14:56:56;5.65;;;1.50;;
30010;SDS011;16851;53.564;8.112;2023-06-22T15:02:00;3.03;;;1.55;;
30010;SDS011;16851;53.564;8.112;2023-06-22T15:07:02;2.60;;;1.58;;
30010;SDS011;16851;53.564;8.112;2023-06-22T15:12:04;3.97;;;1.55;;
30010;SDS011;16851;53.564;8.112;2023-06-22T15:17:09;4.90;;;1.60;;
30010;SDS011;16851;53.564;8.112;2023-06-22T15:22:14;2.97;;;1.30;;
30010;SDS011;16851;53.564;8.112;2023-06-22T15:27:18;3.38;;;1.33;;
30010;SDS011;16851;53.564;8.112;2023-06-22T15:32:20;3.97;;;1.75;;
30010;SDS011;16851;53.564;8.112;2023-06-22T15:37:25;6.95;;;1.40;;
30010;SDS011;16851;53.564;8.112;2023-06-22T15:42:27;4.75;;;1.58;;
30010;SDS011;16851;53.564;8.112;2023-06-22T15:47:28;4.43;;;1.50;;
30010;SDS011;16851;53.564;8.112;2023-06-22T15:52:32;4.07;;;1.60;;
30010;SDS011;16851;53.564;8.112;2023-06-22T15:57:34;2.97;;;1.50;;
30010;SDS011;16851;53.564;8.112;2023-06-22T16:02:36;5.82;;;1.60;;
30010;SDS011;16851;53.564;8.112;2023-06-22T16:07:38;3.25;;;1.30;;
30010;SDS011;16851;53.564;8.112;2023-06-22T16:12:42;3.60;;;1.45;;
30010;SDS011;16851;53.564;8.112;2023-06-22T16:17:46;8.02;;;1.60;;
30010;SDS011;16851;53.564;8.112;2023-06-22T16:22:50;4.63;;;1.60;;
30010;SDS011;16851;53.564;8.112;2023-06-22T16:27:53;3.45;;;1.60;;
30010;SDS011;16851;53.564;8.112;2023-06-22T16:32:59;5.78;;;1.92;;
30010;SDS011;16851;53.564;8.112;2023-06-22T16:38:03;8.95;;;2.15;;
30010;SDS011;16851;53.564;8.112;2023-06-22T16:43:05;4.50;;;2.13;;
30010;SDS011;16851;53.564;8.112;2023-06-22T16:48:06;8.57;;;2.60;;
30010;SDS011;16851;53.564;8.112;2023-06-22T16:53:08;6.60;;;2.53;;
30010;SDS011;16851;53.564;8.112;2023-06-22T16:58:13;5.28;;;2.60;;
30010;SDS011;16851;53.564;8.112;2023-06-22T17:03:22;7.47;;;2.95;;
30010;SDS011;16851;53.564;8.112;2023-06-22T17:08:27;12.35;;;3.53;;
30010;SDS011;16851;53.564;8.112;2023-06-22T17:13:30;9.10;;;3.30;;
30010;SDS011;16851;53.564;8.112;2023-06-22T17:18:32;13.65;;;3.83;;
30010;SDS011;16851;53.564;8.112;2023-06-22T17:23:34;9.50;;;3.25;;
30010;SDS011;16851;53.564;8.112;2023-06-22T17:28:47;12.00;;;3.53;;
30010;SDS011;16851;53.564;8.112;2023-06-22T17:33:53;8.73;;;3.63;;
30010;SDS011;16851;53.564;8.112;2023-06-22T17:39:00;7.70;;;3.20;;
30010;SDS011;16851;53.564;8.112;2023-06-22T17:44:04;12.25;;;3.78;;
30010;SDS011;16851;53.564;8.112;2023-06-22T17:49:10;9.55;;;3.90;;
30010;SDS011;16851;53.564;8.112;2023-06-22T17:54:21;11.20;;;3.50;;
30010;SDS011;16851;53.564;8.112;2023-06-22T17:59:40;11.27;;;3.85;;
30010;SDS011;16851;53.564;8.112;2023-06-22T18:04:46;12.15;;;3.70;;
30010;SDS011;16851;53.564;8.112;2023-06-22T18:09:50;10.75;;;3.60;;
30010;SDS011;16851;53.564;8.112;2023-06-22T18:14:53;8.68;;;3.22;;
30010;SDS011;16851;53.564;8.112;2023-06-22T18:19:56;13.05;;;4.10;;
30010;SDS011;16851;53.564;8.112;2023-06-22T18:25:02;10.30;;;3.45;;
30010;SDS011;16851;53.564;8.112;2023-06-22T18:30:07;17.75;;;3.92;;
30010;SDS011;16851;53.564;8.112;2023-06-22T18:35:09;10.35;;;3.10;;
30010;SDS011;16851;53.564;8.112;2023-06-22T18:40:13;10.32;;;3.65;;
30010;SDS011;16851;53.564;8.112;2023-06-22T18:45:22;11.20;;;3.53;;
30010;SDS011;16851;53.564;8.112;2023-06-22T18:50:35;12.20;;;4.25;;
30010;SDS011;16851;53.564;8.112;2023-06-22T18:55:40;15.27;;;4.60;;
30010;SDS011;16851;53.564;8.112;2023-06-22T19:00:43;12.25;;;4.20;;
30010;SDS011;16851;53.564;8.112;2023-06-22T19:05:45;11.23;;;4.68;;
30010;SDS011;16851;53.564;8.112;2023-06-22T19:10:47;16.00;;;4.65;;
30010;SDS011;16851;53.564;8.112;2023-06-22T19:21:11;16.35;;;4.85;;
30010;SDS011;16851;53.564;8.112;2023-06-22T19:26:15;12.48;;;4.72;;
30010;SDS011;16851;53.564;8.112;2023-06-22T19:31:19;9.65;;;4.35;;
30010;SDS011;16851;53.564;8.112;2023-06-22T19:36:22;17.40;;;4.75;;
30010;SDS011;16851;53.564;8.112;2023-06-22T19:41:26;12.40;;;5.22;;
30010;SDS011;16851;53.564;8.112;2023-06-22T19:46:32;10.68;;;5.15;;
30010;SDS011;16851;53.564;8.112;2023-06-22T19:51:36;14.00;;;5.60;;
30010;SDS011;16851;53.564;8.112;2023-06-22T19:56:38;12.07;;;5.60;;
30010;SDS011;16851;53.564;8.112;2023-06-22T20:01:40;11.35;;;5.13;;
30010;SDS011;16851;53.564;8.112;2023-06-22T20:12:08;13.70;;;6.07;;
30010;SDS011;16851;53.564;8.112;2023-06-22T20:17:16;19.52;;;6.20;;
30010;SDS011;16851;53.564;8.112;2023-06-22T20:22:21;14.40;;;6.32;;
30010;SDS011;16851;53.564;8.112;2023-06-22T20:27:25;16.30;;;6.88;;
30010;SDS011;16851;53.564;8.112;2023-06-22T20:32:27;13.52;;;6.47;;
30010;SDS011;16851;53.564;8.112;2023-06-22T20:37:28;12.43;;;6.03;;
30010;SDS011;16851;53.564;8.112;2023-06-22T20:42:33;16.48;;;6.70;;
30010;SDS011;16851;53.564;8.112;2023-06-22T20:47:37;18.27;;;7.00;;
30010;SDS011;16851;53.564;8.112;2023-06-22T20:52:42;17.40;;;6.93;;
30010;SDS011;16851;53.564;8.112;2023-06-22T20:57:45;18.13;;;6.93;;
30010;SDS011;16851;53.564;8.112;2023-06-22T21:02:48;16.83;;;6.55;;
30010;SDS011;16851;53.564;8.112;2023-06-22T21:08:03;13.88;;;5.82;;
30010;SDS011;16851;53.564;8.112;2023-06-22T21:13:05;11.63;;;5.75;;
30010;SDS011;16851;53.564;8.112;2023-06-22T21:18:07;12.55;;;5.25;;
30010;SDS011;16851;53.564;8.112;2023-06-22T21:23:09;7.25;;;4.85;;
30010;SDS011;16851;53.564;8.112;2023-06-22T21:28:13;9.85;;;5.80;;
30010;SDS011;16851;53.564;8.112;2023-06-22T21:33:15;9.63;;;6.10;;
30010;SDS011;16851;53.564;8.112;2023-06-22T21:38:17;9.32;;;5.50;;
30010;SDS011;16851;53.564;8.112;2023-06-22T21:43:19;7.95;;;5.38;;
30010;SDS011;16851;53.564;8.112;2023-06-22T21:48:21;9.27;;;6.60;;
30010;SDS011;16851;53.564;8.112;2023-06-22T21:53:25;9.43;;;6.80;;
30010;SDS011;16851;53.564;8.112;2023-06-22T21:58:28;9.75;;;7.70;;
30010;SDS011;16851;53.564;8.112;2023-06-22T22:03:30;9.63;;;7.93;;
30010;SDS011;16851;53.564;8.112;2023-06-22T22:08:35;9.75;;;8.45;;
30010;SDS011;16851;53.564;8.112;2023-06-22T22:13:37;9.48;;;8.50;;
30010;SDS011;16851;53.564;8.112;2023-06-22T22:18:42;10.45;;;8.40;;
30010;SDS011;16851;53.564;8.112;2023-06-22T22:23:48;12.27;;;8.70;;
30010;SDS011;16851;53.564;8.112;2023-06-22T22:28:50;12.07;;;8.85;;
30010;SDS011;16851;53.564;8.112;2023-06-22T22:33:54;8.43;;;7.45;;
30010;SDS011;16851;53.564;8.112;2023-06-22T22:38:59;9.10;;;7.63;;
30010;SDS011;16851;53.564;8.112;2023-06-22T22:44:05;10.07;;;7.43;;
30010;SDS011;16851;53.564;8.112;2023-06-22T22:49:10;11.85;;;8.73;;
30010;SDS011;16851;53.564;8.112;2023-06-22T22:54:12;9.52;;;8.27;;
30010;SDS011;16851;53.564;8.112;2023-06-22T22:59:16;12.55;;;9.07;;
30010;SDS011;16851;53.564;8.112;2023-06-22T23:04:18;9.90;;;8.43;;
30010;SDS011;16851;53.564;8.112;2023-06-22T23:09:20;9.63;;;7.72;;
30010;SDS011;16851;53.564;8.112;2023-06-22T23:14:22;10.45;;;7.85;;
30010;SDS011;16851;53.564;8.112;2023-06-22T23:19:26;12.43;;;9.30;;
30010;SDS011;16851;53.564;8.112;2023-06-22T23:24:28;11.25;;;9.73;;
30010;SDS011;16851;53.564;8.112;2023-06-22T23:29:35;12.98;;;9.68;;
30010;SDS011;16851;53.564;8.112;2023-06-22T23:34:44;15.23;;;9.68;;
30010;SDS011;16851;53.564;8.112;2023-06-22T23:39:49;15.88;;;9.20;;
30010;SDS011;16851;53.564;8.112;2023-06-22T23:44:51;19.88;;;9.55;;
30010;SDS011;16851;53.564;8.112;2023-06-22T23:49:53;21.30;;;10.48;;
30010;SDS011;16851;53.564;8.112;2023-06-22T23:54:58;21.48;;;9.43;;
